Time;durP1;ratioP1;P1;durP2;ratioP2;P2;SDS_P1;SDS_P2;PMS_P1;PMS_P2;Temp;Humidity;BMP_temperature;BMP_pressure;BME280_temperature;BME280_humidity;BME280_pressure;Samples;Min_cycle;Max_cycle;Signal;HPM_P1;HPM_P2
2023/11/21 00:01:15;;;;;;;;;;;;;;;9.60;52.12;99435.81;5091778;28;19912;-77
2023/11/21 00:03:40;;;;;;;;;;;;;;;9.60;51.96;99435.81;5091795;28;19920;-77
2023/11/21 00:06:08;;;;;;;;;;;;;;;9.56;52.06;99438.00;5073584;28;20430;-77
2023/11/21 00:08:34;;;;;;;;;;;;;;;9.54;52.13;99434.72;5091785;28;19912;-77
2023/11/21 00:11:00;;;;;;;;;;;;;;;9.50;52.38;99436.88;5091714;28;19912;-77
2023/11/21 00:13:25;;;;;;;;;;;;;;;9.46;52.38;99438.22;5091896;28;19912;-77
2023/11/21 00:15:51;;;;;;;;;;;;;;;9.42;52.03;99441.38;5091951;28;19919;-78
2023/11/21 00:18:16;;;;;;;;;;;;;;;9.37;51.63;99443.69;5090994;28;19924;-77
2023/11/21 00:20:41;;;;;;;;;;;;;;;9.30;52.40;99445.38;5090422;28;19919;-78
2023/11/21 00:23:07;;;;;;;;;;;;;;;9.23;52.09;99446.06;5090764;28;19947;-78
2023/11/21 00:25:32;;;;;;;;;;;;;;;9.21;51.97;99445.41;5090637;28;19919;-77
2023/11/21 00:27:57;;;;;;;;;;;;;;;9.19;52.41;99452.69;5091017;28;20308;-77
2023/11/21 00:30:23;;;;;;;;;;;;;;;9.11;53.25;99457.97;5072471;28;19969;-76
2023/11/21 00:32:48;;;;;;;;;;;;;;;9.13;52.36;99460.44;5072379;28;19912;-77
2023/11/21 00:35:13;;;;;;;;;;;;;;;9.10;52.92;99458.97;5090499;28;19912;-76
2023/11/21 00:37:39;;;;;;;;;;;;;;;9.09;52.60;99456.50;5090703;28;19912;-78
2023/11/21 00:40:05;;;;;;;;;;;;;;;9.08;52.86;99462.75;5093514;28;19912;-76
2023/11/21 00:42:33;;;;;;;;;;;;;;;9.11;52.42;99467.69;5093938;28;20385;-77
2023/11/21 00:44:58;;;;;;;;;;;;;;;9.10;52.67;99463.41;5093932;28;19973;-77
2023/11/21 00:47:23;;;;;;;;;;;;;;;9.09;52.24;99470.50;5075854;28;19912;-78
2023/11/21 00:49:49;;;;;;;;;;;;;;;9.03;52.70;99462.47;5075766;28;20377;-78
2023/11/21 00:52:14;;;;;;;;;;;;;;;8.97;53.38;99461.31;5093850;28;19913;-77
2023/11/21 00:54:40;;;;;;;;;;;;;;;8.94;53.03;99459.03;5075545;28;19995;-77
2023/11/21 00:57:05;;;;;;;;;;;;;;;8.97;52.59;99457.88;5093935;28;20014;-78
2023/11/21 00:59:30;;;;;;;;;;;;;;;8.95;52.67;99459.84;5093818;28;19912;-78
2023/11/21 01:01:56;;;;;;;;;;;;;;;8.91;52.93;99459.34;5093791;28;19912;-76
2023/11/21 01:04:21;;;;;;;;;;;;;;;8.89;52.67;99456.06;5093399;28;19962;-78
2023/11/21 01:06:46;;;;;;;;;;;;;;;8.89;52.55;99453.41;5093598;28;20401;-77
2023/11/21 01:09:12;;;;;;;;;;;;;;;8.83;52.55;99449.66;5093603;28;20381;-77
2023/11/21 01:11:38;;;;;;;;;;;;;;;8.77;53.19;99450.31;5093475;28;19974;-77
2023/11/21 01:14:04;;;;;;;;;;;;;;;8.73;53.01;99443.75;5093461;28;19920;-77
2023/11/21 01:16:29;;;;;;;;;;;;;;;8.58;53.14;99438.38;5093716;28;19912;-77
2023/11/21 01:18:55;;;;;;;;;;;;;;;8.54;52.69;99436.22;5028126;28;1851779;-77
2023/11/21 01:21:20;;;;;;;;;;;;;;;8.54;52.47;99437.06;5094786;28;20006;-77
2023/11/21 01:23:45;;;;;;;;;;;;;;;8.48;53.36;99429.00;5094689;28;19916;-77
2023/11/21 01:26:11;;;;;;;;;;;;;;;8.48;52.92;99429.00;5094868;28;19985;-77
2023/11/21 01:28:37;;;;;;;;;;;;;;;8.48;53.19;99431.63;5094772;28;19912;-77
2023/11/21 01:31:02;;;;;;;;;;;;;;;8.43;52.83;99431.31;5094376;28;19922;-77
2023/11/21 01:33:28;;;;;;;;;;;;;;;8.43;52.61;99431.31;5094566;28;19995;-77
2023/11/21 01:35:54;;;;;;;;;;;;;;;8.44;52.71;99427.69;5095033;28;20384;-77
2023/11/21 01:38:20;;;;;;;;;;;;;;;8.45;53.21;99424.91;5094106;28;20000;-78
2023/11/21 01:40:45;;;;;;;;;;;;;;;8.45;52.88;99431.97;5093982;28;20389;-77
2023/11/21 01:43:10;;;;;;;;;;;;;;;8.39;53.06;99425.56;5093988;28;19923;-78
2023/11/21 01:45:35;;;;;;;;;;;;;;;8.36;53.42;99425.09;5093906;28;20304;-77
2023/11/21 01:48:02;;;;;;;;;;;;;;;8.32;54.21;99429.00;5094122;28;19955;-78
2023/11/21 01:50:28;;;;;;;;;;;;;;;8.28;53.16;99428.50;5094056;28;19966;-77
2023/11/21 01:52:54;;;;;;;;;;;;;;;8.29;53.64;99422.28;5093688;28;19912;-78
2023/11/21 01:55:19;;;;;;;;;;;;;;;8.29;53.10;99415.19;5093650;28;19904;-78
2023/11/21 01:57:46;;;;;;;;;;;;;;;8.33;52.99;99417.50;5093689;28;19920;-78
2023/11/21 02:00:19;;;;;;;;;;;;;;;8.31;53.85;99415.03;5093686;28;19919;-78
2023/11/21 02:02:44;;;;;;;;;;;;;;;8.29;53.97;99409.94;5093526;28;19912;-77
2023/11/21 02:05:14;;;;;;;;;;;;;;;8.30;53.16;99410.75;5075327;28;20354;-77
2023/11/21 02:07:39;;;;;;;;;;;;;;;8.27;53.20;99411.91;5093671;28;20377;-78
2023/11/21 02:10:06;;;;;;;;;;;;;;;8.25;53.00;99413.06;5093382;28;19934;-78
2023/11/21 02:12:31;;;;;;;;;;;;;;;8.18;52.75;99418.16;5075403;28;19912;-76
2023/11/21 02:14:56;;;;;;;;;;;;;;;8.16;53.32;99419.28;5093555;28;19934;-78
2023/11/21 02:17:21;;;;;;;;;;;;;;;8.16;52.68;99422.75;5075361;28;19912;-78
2023/11/21 02:19:51;;;;;;;;;;;;;;;8.13;53.71;99428.34;5093324;28;19977;-78
2023/11/21 02:22:17;;;;;;;;;;;;;;;8.05;53.26;99427.50;5093662;28;19912;-77
2023/11/21 02:24:42;;;;;;;;;;;;;;;7.94;53.93;99426.03;5093242;28;19916;-77
2023/11/21 02:27:07;;;;;;;;;;;;;;;7.90;53.65;99433.44;5093423;28;19966;-77
2023/11/21 02:29:33;;;;;;;;;;;;;;;7.87;54.13;99425.88;5092964;28;19919;-77
2023/11/21 02:31:59;;;;;;;;;;;;;;;7.80;54.66;99422.25;5093157;28;19919;-77
2023/11/21 02:34:25;;;;;;;;;;;;;;;7.81;54.25;99420.44;5093220;28;19919;-78
2023/11/21 02:36:51;;;;;;;;;;;;;;;7.86;53.41;99424.22;5093133;28;19912;-77
2023/11/21 02:39:16;;;;;;;;;;;;;;;7.87;53.90;99419.78;5074688;28;19919;-77
2023/11/21 02:41:42;;;;;;;;;;;;;;;7.89;53.68;99413.38;5075000;28;19912;-78
2023/11/21 02:44:07;;;;;;;;;;;;;;;7.86;54.31;99412.88;5092808;28;20028;-78
2023/11/21 02:46:33;;;;;;;;;;;;;;;7.89;54.11;99399.41;5092783;28;19930;-77
2023/11/21 02:48:59;;;;;;;;;;;;;;;7.94;54.37;99405.00;5093085;28;19916;-77
2023/11/21 02:51:25;;;;;;;;;;;;;;;7.97;53.83;99402.03;5092906;28;19916;-77
2023/11/21 02:53:51;;;;;;;;;;;;;;;7.93;54.76;99400.72;5092841;28;19923;-76
2023/11/21 02:56:16;;;;;;;;;;;;;;;7.86;54.63;99407.63;5092722;28;19917;-78
2023/11/21 02:58:43;;;;;;;;;;;;;;;7.87;54.27;99401.38;5092679;28;19948;-76
2023/11/21 03:01:09;;;;;;;;;;;;;;;7.86;55.14;99405.00;5092226;28;19912;-77
2023/11/21 03:03:34;;;;;;;;;;;;;;;7.81;53.94;99400.25;5092665;28;19916;-77
2023/11/21 03:06:00;;;;;;;;;;;;;;;7.81;54.66;99405.50;5092735;28;19990;-77
2023/11/21 03:08:25;;;;;;;;;;;;;;;7.81;54.28;99402.03;5092569;28;20313;-77
2023/11/21 03:10:50;;;;;;;;;;;;;;;7.77;55.44;99405.97;5092258;28;19954;-77
2023/11/21 03:13:15;;;;;;;;;;;;;;;7.78;54.76;99405.81;5074136;28;20305;-77
2023/11/21 03:15:42;;;;;;;;;;;;;;;7.72;55.15;99414.34;5092311;28;20308;-77
2023/11/21 03:18:08;;;;;;;;;;;;;;;7.68;55.03;99409.59;5092247;28;20439;-77
2023/11/21 03:20:34;;;;;;;;;;;;;;;7.65;55.46;99411.56;5092416;28;19956;-77
2023/11/21 03:22:59;;;;;;;;;;;;;;;7.64;56.16;99409.91;5092154;28;20002;-77
2023/11/21 03:25:25;;;;;;;;;;;;;;;7.68;55.86;99415.66;5092321;28;20038;-77
2023/11/21 03:27:50;;;;;;;;;;;;;;;7.64;56.32;99417.81;5092181;28;20399;-77
2023/11/21 03:30:16;;;;;;;;;;;;;;;7.64;55.51;99423.06;5092423;28;19956;-78
2023/11/21 03:32:42;;;;;;;;;;;;;;;7.63;55.88;99425.84;5092629;28;19916;-77
2023/11/21 03:35:07;;;;;;;;;;;;;;;7.61;55.94;99418.13;5092201;28;19955;-77
2023/11/21 03:37:32;;;;;;;;;;;;;;;7.58;55.58;99425.50;5092314;28;20309;-77
2023/11/21 03:39:58;;;;;;;;;;;;;;;7.54;56.42;99425.00;5092300;28;19919;-77
2023/11/21 03:42:23;;;;;;;;;;;;;;;7.58;55.46;99425.50;5092046;28;20381;-78
2023/11/21 03:44:49;;;;;;;;;;;;;;;7.64;55.75;99414.34;5092066;28;19999;-76
2023/11/21 03:47:14;;;;;;;;;;;;;;;7.64;55.95;99420.44;5092162;28;19911;-77
2023/11/21 03:49:39;;;;;;;;;;;;;;;7.69;55.36;99417.31;5073838;28;19918;-77
2023/11/21 03:52:05;;;;;;;;;;;;;;;7.69;55.53;99412.06;5091921;28;19912;-77
2023/11/21 03:54:30;;;;;;;;;;;;;;;7.65;55.58;99410.75;5091905;28;19912;-77
2023/11/21 03:56:56;;;;;;;;;;;;;;;7.59;56.01;99416.66;5073698;28;19984;-77
2023/11/21 03:59:24;;;;;;;;;;;;;;;7.61;56.33;99404.16;5091597;28;19919;-77
2023/11/21 04:01:49;;;;;;;;;;;;;;;7.54;56.88;99401.38;5091719;28;20057;-77
2023/11/21 04:04:14;;;;;;;;;;;;;;;7.50;57.20;99401.84;5091733;28;20003;-78
2023/11/21 04:06:41;;;;;;;;;;;;;;;7.52;56.67;99405.97;5091892;28;20300;-77
2023/11/21 04:09:06;;;;;;;;;;;;;;;7.51;57.02;99398.25;5091839;28;19912;-77
2023/11/21 04:11:31;;;;;;;;;;;;;;;7.53;57.34;99412.03;5091724;28;19918;-78
2023/11/21 04:13:56;;;;;;;;;;;;;;;7.53;56.39;99406.78;5074947;28;19919;-77
2023/11/21 04:16:22;;;;;;;;;;;;;;;7.55;56.75;99410.88;5095717;28;19909;-77
2023/11/21 04:18:47;;;;;;;;;;;;;;;7.57;56.94;99405.47;5077839;28;19924;-77
2023/11/21 04:21:12;;;;;;;;;;;;;;;7.54;57.35;99404.00;5096002;28;20294;-77
2023/11/21 04:23:37;;;;;;;;;;;;;;;7.53;57.23;99407.59;5095553;28;19920;-77
2023/11/21 04:26:03;;;;;;;;;;;;;;;7.54;56.90;99409.25;5095632;28;19944;-77
2023/11/21 04:28:28;;;;;;;;;;;;;;;7.57;56.02;99423.88;5095738;28;20399;-77
2023/11/21 04:30:54;;;;;;;;;;;;;;;7.59;55.25;99432.41;5095546;28;19917;-77
2023/11/21 04:33:19;;;;;;;;;;;;;;;7.51;56.82;99435.84;5095457;28;19977;-78
2023/11/21 04:35:44;;;;;;;;;;;;;;;7.47;57.30;99445.03;5095451;28;19951;-77
2023/11/21 04:38:10;;;;;;;;;;;;;;;7.44;56.55;99439.28;5095813;28;20301;-77
2023/11/21 04:40:35;;;;;;;;;;;;;;;7.41;55.69;99435.13;5077576;28;19912;-77
2023/11/21 04:43:01;;;;;;;;;;;;;;;7.38;56.85;99430.19;5095473;28;19919;-77
2023/11/21 04:45:26;;;;;;;;;;;;;;;7.35;56.35;99435.78;5095378;28;20388;-77
2023/11/21 04:47:52;;;;;;;;;;;;;;;7.33;56.99;99435.09;5095263;28;19918;-77
2023/11/21 04:50:18;;;;;;;;;;;;;;;7.31;56.88;99430.00;5095361;28;19916;-77
2023/11/21 04:52:44;;;;;;;;;;;;;;;7.29;56.47;99437.22;5077106;28;19979;-77
2023/11/21 04:55:10;;;;;;;;;;;;;;;7.27;56.47;99441.81;5095046;28;19912;-77
2023/11/21 04:57:35;;;;;;;;;;;;;;;7.24;56.67;99451.81;5076960;28;19965;-77
2023/11/21 05:00:01;;;;;;;;;;;;;;;7.28;56.56;99446.09;5095161;28;19904;-77
2023/11/21 05:02:26;;;;;;;;;;;;;;;7.31;56.27;99437.06;5094935;28;19920;-78
2023/11/21 05:04:52;;;;;;;;;;;;;;;7.30;56.97;99454.63;5094786;28;19920;-77
2023/11/21 05:07:18;;;;;;;;;;;;;;;7.30;56.69;99444.13;5094705;28;19995;-77
2023/11/21 05:09:46;;;;;;;;;;;;;;;7.30;56.72;99440.69;5094649;28;20381;-78
2023/11/21 05:12:12;;;;;;;;;;;;;;;7.27;56.87;99433.13;5094601;28;19993;-78
2023/11/21 05:14:37;;;;;;;;;;;;;;;7.27;57.29;99430.50;5094737;28;19952;-78
2023/11/21 05:17:04;;;;;;;;;;;;;;;7.29;57.31;99442.47;5076458;28;19920;-77
2023/11/21 05:19:29;;;;;;;;;;;;;;;7.29;57.13;99444.28;5076345;28;20015;-78
2023/11/21 05:21:54;;;;;;;;;;;;;;;7.31;57.27;99451.03;5094458;28;19951;-78
2023/11/21 05:24:20;;;;;;;;;;;;;;;7.36;56.21;99450.53;5094171;28;19917;-78
2023/11/21 05:26:45;;;;;;;;;;;;;;;7.40;56.15;99454.50;5094614;28;19912;-77
2023/11/21 05:29:10;;;;;;;;;;;;;;;7.44;54.95;99458.47;5094258;28;19912;-77
2023/11/21 05:31:36;;;;;;;;;;;;;;;7.45;55.15;99462.75;5094220;28;20028;-77
2023/11/21 05:34:01;;;;;;;;;;;;;;;7.47;54.76;99470.47;5094474;28;19916;-78
2023/11/21 05:36:26;;;;;;;;;;;;;;;7.51;54.83;99471.78;5076124;28;20048;-77
2023/11/21 05:38:52;;;;;;;;;;;;;;;7.50;55.28;99472.78;5094329;28;19911;-78
2023/11/21 05:41:17;;;;;;;;;;;;;;;7.48;55.59;99467.69;5076027;28;20407;-77
2023/11/21 05:43:42;;;;;;;;;;;;;;;7.52;54.92;99473.44;5094018;28;19917;-77
2023/11/21 05:46:08;;;;;;;;;;;;;;;7.56;54.78;99462.44;5094135;28;19912;-77
2023/11/21 05:48:36;;;;;;;;;;;;;;;7.63;54.85;99466.06;5093983;28;20360;-77
2023/11/21 05:51:02;;;;;;;;;;;;;;;7.68;54.77;99462.97;5093844;28;19912;-77
2023/11/21 05:53:27;;;;;;;;;;;;;;;7.65;55.99;99458.03;5093973;28;19923;-76
2023/11/21 05:55:52;;;;;;;;;;;;;;;7.67;55.66;99457.88;5093880;28;20432;-77
2023/11/21 05:58:18;;;;;;;;;;;;;;;7.68;55.46;99462.97;5094111;28;19965;-77
2023/11/21 06:00:43;;;;;;;;;;;;;;;7.65;56.41;99465.91;5094165;28;20025;-76
2023/11/21 06:03:08;;;;;;;;;;;;;;;7.70;55.39;99461.00;5093684;28;19912;-78
2023/11/21 06:05:34;;;;;;;;;;;;;;;7.77;54.88;99456.75;5093693;28;19995;-78
2023/11/21 06:08:00;;;;;;;;;;;;;;;7.82;55.26;99456.25;5093987;28;19984;-76
2023/11/21 06:10:26;;;;;;;;;;;;;;;7.84;55.91;99473.50;5093483;28;20381;-78
2023/11/21 06:12:51;;;;;;;;;;;;;;;7.91;55.59;99457.91;5093459;28;19912;-77
2023/11/21 06:15:19;;;;;;;;;;;;;;;7.97;55.45;99460.72;5093550;28;19912;-77
2023/11/21 06:17:49;;;;;;;;;;;;;;;8.02;55.69;99462.03;5093133;28;19935;-77
2023/11/21 06:20:14;;;;;;;;;;;;;;;8.02;56.04;99468.09;5093139;28;19919;-77
2023/11/21 06:22:41;;;;;;;;;;;;;;;8.04;55.36;99470.56;5091401;28;20003;-76
2023/11/21 06:25:07;;;;;;;;;;;;;;;8.13;55.50;99475.66;5090377;28;20324;-77
2023/11/21 06:27:34;;;;;;;;;;;;;;;8.16;56.30;99464.81;5093026;28;19916;-77
2023/11/21 06:29:59;;;;;;;;;;;;;;;8.18;56.33;99468.13;5093174;28;19919;-77
2023/11/21 06:32:24;;;;;;;;;;;;;;;8.22;55.01;99471.25;5091214;28;19916;-77
2023/11/21 06:34:50;;;;;;;;;;;;;;;8.27;54.29;99474.22;5074609;28;20384;-77
2023/11/21 06:37:16;;;;;;;;;;;;;;;8.30;56.25;99471.25;5091857;28;19912;-77
2023/11/21 06:39:41;;;;;;;;;;;;;;;8.35;55.28;99478.69;5092552;28;19923;-77
2023/11/21 06:42:07;;;;;;;;;;;;;;;8.40;55.28;99477.19;5093025;28;19919;-77
2023/11/21 06:44:33;;;;;;;;;;;;;;;8.39;56.23;99472.94;5080887;28;20396;-78
2023/11/21 06:46:58;;;;;;;;;;;;;;;8.43;56.29;99473.41;5072412;28;20314;-78
2023/11/21 06:49:23;;;;;;;;;;;;;;;8.47;56.55;99474.72;5073784;28;19938;-78
2023/11/21 06:51:49;;;;;;;;;;;;;;;8.54;56.08;99466.00;5084093;28;19912;-77
2023/11/21 06:54:14;;;;;;;;;;;;;;;8.60;56.78;99465.34;5072611;28;19912;-76
2023/11/21 06:56:39;;;;;;;;;;;;;;;8.64;56.09;99454.47;5076020;28;20361;-77
2023/11/21 06:59:05;;;;;;;;;;;;;;;8.68;56.02;99451.34;5074708;28;19935;-77
2023/11/21 07:01:33;;;;;;;;;;;;;;;8.76;55.64;99453.13;5073578;28;19917;-77
2023/11/21 07:03:59;;;;;;;;;;;;;;;8.82;55.38;99445.38;5072371;28;19921;-77
2023/11/21 07:06:24;;;;;;;;;;;;;;;8.94;53.96;99450.31;5072220;28;20078;-77
2023/11/21 07:08:49;;;;;;;;;;;;;;;9.02;55.57;99445.84;5054245;28;19912;-78
2023/11/21 07:11:15;;;;;;;;;;;;;;;9.12;54.43;99446.44;5071987;28;19916;-77
2023/11/21 07:13:40;;;;;;;;;;;;;;;9.18;54.51;99447.56;5070646;28;19912;-78
2023/11/21 07:16:06;;;;;;;;;;;;;;;9.27;55.43;99449.19;5078439;28;19959;-78
2023/11/21 07:18:31;;;;;;;;;;;;;;;9.34;56.00;99447.50;5092035;28;20328;-77
2023/11/21 07:20:58;;;;;;;;;;;;;;;9.41;55.53;99458.16;5091368;28;20395;-77
2023/11/21 07:23:23;;;;;;;;;;;;;;;9.48;54.61;99452.03;5084026;28;19928;-77
2023/11/21 07:25:49;;;;;;;;;;;;;;;9.55;55.27;99452.97;5074749;28;19970;-78
2023/11/21 07:28:15;;;;;;;;;;;;;;;9.63;55.19;99446.84;5075615;28;19921;-77
2023/11/21 07:30:40;;;;;;;;;;;;;;;9.70;55.72;99444.38;5070610;28;19919;-78
2023/11/21 07:33:06;;;;;;;;;;;;;;;9.77;55.89;99435.56;5072122;28;19952;-77
2023/11/21 07:35:31;;;;;;;;;;;;;;;9.84;55.86;99430.41;5071716;28;20431;-77
2023/11/21 07:37:57;;;;;;;;;;;;;;;9.93;55.04;99433.81;5071715;28;20285;-77
2023/11/21 07:40:22;;;;;;;;;;;;;;;9.98;55.78;99434.09;5071862;28;19923;-78
2023/11/21 07:42:48;;;;;;;;;;;;;;;10.04;55.15;99431.59;5080745;28;19936;-78
2023/11/21 07:45:15;;;;;;;;;;;;;;;10.08;55.95;99445.25;5076134;28;19921;-78
2023/11/21 07:47:40;;;;;;;;;;;;;;;10.10;55.75;99443.25;5053402;28;19962;-77
2023/11/21 07:50:07;;;;;;;;;;;;;;;10.10;55.43;99446.69;5077861;28;19957;-77
2023/11/21 07:52:32;;;;;;;;;;;;;;;10.11;55.31;99445.69;5073312;28;19908;-77
2023/11/21 07:54:57;;;;;;;;;;;;;;;10.16;54.00;99448.63;5086505;28;19916;-76
2023/11/21 07:57:23;;;;;;;;;;;;;;;10.17;54.82;99441.53;5080536;28;19977;-77
2023/11/21 07:59:48;;;;;;;;;;;;;;;10.17;54.11;99429.16;5067286;28;19916;-77
2023/11/21 08:02:16;;;;;;;;;;;;;;;10.23;54.15;99438.22;5078775;28;19943;-78
2023/11/21 08:04:41;;;;;;;;;;;;;;;10.24;54.16;99439.03;5085349;28;20436;-77
2023/11/21 08:07:06;;;;;;;;;;;;;;;10.26;56.13;99437.84;5083455;28;19959;-77
2023/11/21 08:09:32;;;;;;;;;;;;;;;10.32;56.31;99436.31;5082558;28;19923;-76
2023/11/21 08:12:00;;;;;;;;;;;;;;;10.36;54.95;99437.59;5071810;28;19922;-78
2023/11/21 08:14:25;;;;;;;;;;;;;;;10.40;55.91;99431.81;5089717;28;19916;-78
2023/11/21 08:16:52;;;;;;;;;;;;;;;10.43;56.33;99434.09;5057547;28;19916;-77
2023/11/21 08:19:18;;;;;;;;;;;;;;;10.50;56.40;99423.63;5086673;28;19942;-77
2023/11/21 08:21:43;;;;;;;;;;;;;;;10.56;55.44;99425.56;5079750;28;19916;-77
2023/11/21 08:24:10;;;;;;;;;;;;;;;10.63;55.80;99423.84;5076804;28;19924;-77
2023/11/21 08:26:36;;;;;;;;;;;;;;;10.71;56.25;99425.56;5060340;28;19924;-77
2023/11/21 08:29:01;;;;;;;;;;;;;;;10.79;56.14;99431.56;5076100;28;19916;-78
2023/11/21 08:31:26;;;;;;;;;;;;;;;10.88;56.74;99421.75;5073519;28;19936;-77
2023/11/21 08:33:55;;;;;;;;;;;;;;;10.98;56.26;99422.28;5076375;28;19923;-77
2023/11/21 08:36:20;;;;;;;;;;;;;;;11.07;56.44;99415.06;5076167;28;19922;-77
2023/11/21 08:38:46;;;;;;;;;;;;;;;11.15;56.14;99420.28;5080427;28;20003;-77
2023/11/21 08:41:11;;;;;;;;;;;;;;;11.25;56.02;99407.59;5074569;28;19951;-77
2023/11/21 08:43:39;;;;;;;;;;;;;;;11.32;54.52;99408.50;5077435;28;19928;-77
2023/11/21 08:46:05;;;;;;;;;;;;;;;11.38;54.35;99402.47;5071667;28;20011;-78
2023/11/21 08:48:31;;;;;;;;;;;;;;;11.42;56.12;99402.91;5074057;28;19923;-78
2023/11/21 08:50:56;;;;;;;;;;;;;;;11.36;56.21;99388.63;5072878;28;20011;-77
2023/11/21 08:53:21;;;;;;;;;;;;;;;11.56;54.97;99406.50;5075759;28;19916;-77
2023/11/21 08:55:48;;;;;;;;;;;;;;;11.66;55.18;99391.16;5078213;28;19942;-77
2023/11/21 08:58:13;;;;;;;;;;;;;;;11.75;55.64;99382.09;5084996;28;20456;-78
2023/11/21 09:00:39;;;;;;;;;;;;;;;11.85;55.68;99373.84;5087424;28;20003;-77
2023/11/21 09:03:08;;;;;;;;;;;;;;;11.96;54.64;99374.19;5092681;28;20011;-78
2023/11/21 09:05:33;;;;;;;;;;;;;;;12.05;56.72;99364.28;5085888;28;19973;-77
2023/11/21 09:07:59;;;;;;;;;;;;;;;12.16;54.75;99363.75;5078833;28;20377;-78
2023/11/21 09:10:25;;;;;;;;;;;;;;;12.24;55.14;99368.09;5081571;28;19923;-77
2023/11/21 09:12:51;;;;;;;;;;;;;;;12.36;54.58;99359.41;5087885;28;19923;-77
2023/11/21 09:15:17;;;;;;;;;;;;;;;12.50;53.59;99360.31;5082532;28;19916;-78
2023/11/21 09:17:43;;;;;;;;;;;;;;;12.56;55.14;99354.25;5092253;28;20400;-78
2023/11/21 09:20:10;;;;;;;;;;;;;;;12.66;55.00;99354.72;5086591;28;19919;-78
2023/11/21 09:22:35;;;;;;;;;;;;;;;12.76;55.31;99358.84;5078653;28;20010;-77
2023/11/21 09:25:00;;;;;;;;;;;;;;;12.78;55.94;99346.22;5061214;28;20007;-76
2023/11/21 09:27:26;;;;;;;;;;;;;;;12.80;55.71;99344.19;5085856;28;20050;-77
2023/11/21 09:29:52;;;;;;;;;;;;;;;12.85;54.11;99347.06;5093523;28;19916;-76
2023/11/21 09:32:18;;;;;;;;;;;;;;;12.89;56.79;99345.66;5075941;28;19921;-77
2023/11/21 09:34:44;;;;;;;;;;;;;;;12.98;55.56;99339.19;5086522;28;19921;-76
2023/11/21 09:37:09;;;;;;;;;;;;;;;13.09;54.23;99330.66;5071026;28;20350;-77
2023/11/21 09:39:35;;;;;;;;;;;;;;;13.17;56.14;99330.50;5093951;28;19912;-77
2023/11/21 09:42:05;;;;;;;;;;;;;;;13.27;56.39;99322.16;5065347;28;20389;-76
2023/11/21 09:44:44;;;;;;;;;;;;;;;13.38;54.98;99316.28;5086697;28;19921;-77
2023/11/21 09:47:10;;;;;;;;;;;;;;;13.49;55.09;99313.06;5084125;28;20446;-77
2023/11/21 09:49:37;;;;;;;;;;;;;;;13.59;56.87;99312.66;5091709;28;19916;-76
2023/11/21 09:52:03;;;;;;;;;;;;;;;13.71;54.14;99304.91;5075510;28;19912;-77
2023/11/21 09:54:29;;;;;;;;;;;;;;;13.82;55.27;99306.94;5074051;28;19916;-77
2023/11/21 09:56:55;;;;;;;;;;;;;;;13.94;54.72;99306.13;5071807;28;20386;-78
2023/11/21 09:59:21;;;;;;;;;;;;;;;14.06;55.75;99292.22;5079847;28;19959;-77
2023/11/21 10:01:47;;;;;;;;;;;;;;;14.22;54.83;99289.97;5070885;28;19951;-77
2023/11/21 10:04:13;;;;;;;;;;;;;;;14.34;54.89;99284.03;5073449;28;19921;-77
2023/11/21 10:06:41;;;;;;;;;;;;;;;14.48;53.97;99280.31;5088546;28;19920;-78
2023/11/21 10:09:11;;;;;;;;;;;;;;;14.53;54.75;99278.69;5080126;28;20461;-78
2023/11/21 10:11:40;;;;;;;;;;;;;;;14.54;56.00;99267.03;5070618;28;19912;-78
2023/11/21 10:14:07;;;;;;;;;;;;;;;14.58;56.05;99265.56;5080315;28;20294;-77
2023/11/21 10:16:33;;;;;;;;;;;;;;;14.64;55.20;99258.59;5077648;28;19916;-76
2023/11/21 10:18:59;;;;;;;;;;;;;;;14.72;54.88;99261.03;5080469;28;20504;-77
2023/11/21 10:21:24;;;;;;;;;;;;;;;14.81;54.27;99258.94;5076895;28;19916;-77
2023/11/21 10:23:51;;;;;;;;;;;;;;;14.91;54.75;99246.84;5086462;28;19920;-76
2023/11/21 10:26:17;;;;;;;;;;;;;;;14.96;55.93;99243.53;5080670;28;19962;-77
2023/11/21 10:28:56;;;;;;;;;;;;;;;15.05;55.18;99246.75;5070933;28;19920;-77
2023/11/21 10:31:24;;;;;;;;;;;;;;;15.13;54.52;99244.66;5077519;28;19923;-77
2023/11/21 10:33:49;;;;;;;;;;;;;;;15.21;54.85;99243.59;5092275;28;20362;-77
2023/11/21 10:36:24;;;;;;;;;;;;;;;15.26;54.69;99241.91;5081506;28;19924;-77
2023/11/21 10:38:52;;;;;;;;;;;;;;;15.30;55.13;99234.31;5072992;28;19916;-77
2023/11/21 10:41:18;;;;;;;;;;;;;;;15.37;54.49;99223.63;5079666;28;19920;-77
2023/11/21 10:43:43;;;;;;;;;;;;;;;15.40;54.67;99225.84;5072702;28;20011;-76
2023/11/21 10:46:09;;;;;;;;;;;;;;;15.45;55.13;99220.69;5079808;28;19916;-78
2023/11/21 10:48:35;;;;;;;;;;;;;;;15.45;55.40;99210.06;5078372;28;19958;-77
2023/11/21 10:51:06;;;;;;;;;;;;;;;15.49;54.22;99216.56;5073603;28;19912;-77
2023/11/21 10:53:31;;;;;;;;;;;;;;;15.51;54.90;99195.88;5065689;28;19917;-77
2023/11/21 10:56:06;;;;;;;;;;;;;;;15.53;54.91;99199.94;5055316;28;19939;-77
2023/11/21 10:58:32;;;;;;;;;;;;;;;15.55;54.41;99197.88;5083412;28;19912;-76
2023/11/21 11:00:58;;;;;;;;;;;;;;;15.55;55.92;99205.03;5072034;28;19920;-77
2023/11/21 11:03:23;;;;;;;;;;;;;;;15.57;55.35;99189.69;5072102;28;19968;-76
2023/11/21 11:05:51;;;;;;;;;;;;;;;15.55;55.68;99181.91;5056738;28;19955;-76
2023/11/21 11:08:18;;;;;;;;;;;;;;;15.57;55.34;99181.69;5082277;28;19973;-77
2023/11/21 11:10:46;;;;;;;;;;;;;;;15.57;55.92;99171.91;5083015;28;19928;-76
2023/11/21 11:13:14;;;;;;;;;;;;;;;15.55;54.77;99167.78;5080735;28;19912;-77
2023/11/21 11:15:40;;;;;;;;;;;;;;;15.55;54.67;99171.28;5068515;28;20362;-77
2023/11/21 11:18:06;;;;;;;;;;;;;;;15.59;53.83;99182.31;5070484;28;19951;-76
2023/11/21 11:20:39;;;;;;;;;;;;;;;15.56;53.06;99177.41;5083222;28;19916;-76
2023/11/21 11:23:11;;;;;;;;;;;;;;;15.50;53.03;99180.94;5081704;28;19916;-77
2023/11/21 11:25:48;;;;;;;;;;;;;;;15.46;52.70;99183.22;5069905;28;19923;-78
2023/11/21 11:28:21;;;;;;;;;;;;;;;15.39;51.49;99177.16;5075980;28;19963;-76
2023/11/21 11:30:46;;;;;;;;;;;;;;;15.32;51.76;99183.56;5059342;28;19916;-77
2023/11/21 11:33:12;;;;;;;;;;;;;;;15.26;52.05;99180.75;5070295;28;19920;-76
2023/11/21 11:35:47;;;;;;;;;;;;;;;15.19;50.30;99177.31;5091112;28;19916;-78
2023/11/21 11:38:13;;;;;;;;;;;;;;;15.18;51.69;99170.38;5077997;28;19917;-76
2023/11/21 11:40:44;;;;;;;;;;;;;;;15.15;51.43;99170.00;5084703;28;20016;-76
2023/11/21 11:43:10;;;;;;;;;;;;;;;15.16;51.75;99160.97;5071327;28;19916;-75
2023/11/21 11:45:35;;;;;;;;;;;;;;;15.17;51.63;99163.41;5081451;28;20309;-76
2023/11/21 11:48:02;;;;;;;;;;;;;;;15.21;51.97;99161.16;5080177;28;20313;-77
2023/11/21 11:50:27;;;;;;;;;;;;;;;15.23;52.09;99154.56;5081232;28;19923;-77
2023/11/21 11:52:54;;;;;;;;;;;;;;;15.22;51.63;99150.28;5089720;28;19912;-77
2023/11/21 11:55:23;;;;;;;;;;;;;;;15.21;51.92;99147.84;5078419;28;19950;-77
2023/11/21 11:57:55;;;;;;;;;;;;;;;15.20;51.92;99154.19;5067877;28;19939;-76
2023/11/21 12:00:24;;;;;;;;;;;;;;;15.19;51.79;99148.06;5071683;28;20382;-76
2023/11/21 12:03:08;;;;;;;;;;;;;;;15.19;51.06;99149.91;5075355;28;19923;-77
2023/11/21 12:05:43;;;;;;;;;;;;;;;15.20;51.82;99147.03;5083017;28;19980;-75
2023/11/21 12:08:09;;;;;;;;;;;;;;;15.20;51.40;99147.03;5078523;28;19923;-78
2023/11/21 12:10:36;;;;;;;;;;;;;;;15.15;51.74;99138.88;5072191;28;19917;-77
2023/11/21 12:13:09;;;;;;;;;;;;;;;15.14;52.09;99137.25;5066535;28;19925;-76
2023/11/21 12:15:35;;;;;;;;;;;;;;;15.13;51.59;99129.50;5091682;28;20351;-77
2023/11/21 12:18:00;;;;;;;;;;;;;;;15.11;50.95;99120.94;5066957;28;19921;-77
2023/11/21 12:20:26;;;;;;;;;;;;;;;15.10;51.11;99117.47;5058490;28;19968;-77
2023/11/21 12:22:53;;;;;;;;;;;;;;;15.08;50.54;99105.41;5071119;28;19919;-76
2023/11/21 12:25:19;;;;;;;;;;;;;;;15.05;52.92;99096.03;5071165;28;19927;-78
2023/11/21 12:27:45;;;;;;;;;;;;;;;15.06;52.62;99087.03;5060970;28;19920;-76
2023/11/21 12:30:13;;;;;;;;;;;;;;;15.12;53.41;99086.16;5038545;28;19917;-76
2023/11/21 12:32:39;;;;;;;;;;;;;;;15.17;52.88;99078.31;5064223;28;19927;-76
2023/11/21 12:35:06;;;;;;;;;;;;;;;15.21;53.41;99074.19;5071900;28;19916;-76
2023/11/21 12:37:31;;;;;;;;;;;;;;;15.24;54.76;99072.94;5075014;28;19924;-77
2023/11/21 12:39:57;;;;;;;;;;;;;;;15.24;54.66;99079.06;5074823;28;20385;-77
2023/11/21 12:42:23;;;;;;;;;;;;;;;15.24;57.18;99073.75;5072448;28;19996;-78
2023/11/21 12:44:49;;;;;;;;;;;;;;;15.23;55.53;99063.34;5074633;28;20381;-76
2023/11/21 12:47:16;;;;;;;;;;;;;;;15.22;55.51;99069.69;5066119;28;20309;-77